Terminal Aerodrome Forecast
Issued by NWS

Home | Current Version | Previous Version | Text Only | Print | Product List | Glossary On
Versions: 1 2 3 4 5 6 7 8 9 10 11 12
000
FTUS46 KLOX 152353
TAFSBP
TAF
KSBP 152353Z 1600/1624 31008KT P6SM BKN250
     FM160300 VRB03KT 6SM BR SCT007 BKN250
     FM161000 33009KT P6SM SCT250
     FM161600 33014G20KT P6SM SCT250=

USA.gov is the U.S. government's official web portal to all federal, state and local government web resources and services.